Vitsentzos Kornaros — SXNX — position and weather

sailwx.info

Track history (hours):
 
Tides and Currents Weather Stations Pressure Air Temp Water Temp Dewpoint Dewpoint Depression Visibility Wind Speed Wind Dir Waves Ship Positions

Vitsentzos Kornaros

Last reported at 2017-Apr-23 22:43 UTC. Time now 2017-Apr-23 23:39 UTC.
Position N 36°48' E 023°22'.

Length 128 m; draft 4.5 m.

Type: Passenger vessel. MMSI: 239311000.

Date/timePositionNaut miles runAvg speedWind from/ knotsBaromVisibWave heightAir tempDewpointWater temp
2017-Apr-23 22:43N 36°48' E 023°22'8 0.2
2017-Apr-21 19:04N 36°56' E 023°23'613.1
2017-Apr-21 18:38N 37°01' E 023°27'213.1
2017-Apr-21 18:30N 37°03' E 023°28'813.3
2017-Apr-21 17:52N 37°10' E 023°32'1613.4
2017-Apr-21 16:39N 37°26' E 023°38'213.6
2017-Apr-21 16:30N 37°28' E 023°38'713.5
2017-Apr-21 16:00N 37°34' E 023°41'612.9
2017-Apr-21 15:30N 37°41' E 023°41'612.9
2017-Apr-21 15:00N 37°47' E 023°38'612.5
2017-Apr-21 14:31N 37°53' E 023°37'4 4.2
2017-Apr-21 13:30N 37°57' E 023°38'0 0.0
2017-Apr-21 13:00N 37°57' E 023°38'0 0.0
2017-Apr-21 12:30N 37°57' E 023°38'0 0.0
2017-Apr-21 12:00N 37°57' E 023°38'0 0.0
2017-Apr-21 11:30N 37°57' E 023°38'0 0.0
2017-Apr-21 11:00N 37°57' E 023°38'0 0.0
2017-Apr-21 10:31N 37°57' E 023°38'0 0.0
2017-Apr-21 10:00N 37°57' E 023°38'0 0.0
2017-Apr-21 09:30N 37°57' E 023°38'0 0.0
2017-Apr-21 09:00N 37°57' E 023°38'0 0.0
2017-Apr-21 08:30N 37°57' E 023°38'0 0.0
2017-Apr-21 08:00N 37°57' E 023°38'0 0.0
2017-Apr-21 07:30N 37°57' E 023°38'0 0.0
2017-Apr-21 07:00N 37°57' E 023°38'0 0.0
2017-Apr-21 06:30N 37°57' E 023°38'0 0.0
2017-Apr-21 06:00N 37°57' E 023°38'0 0.0
2017-Apr-21 05:30N 37°57' E 023°38'0 0.0
2017-Apr-21 05:00N 37°57' E 023°38'3 5.6
2017-Apr-21 04:30N 37°54' E 023°38'612.8
2017-Apr-21 04:00N 37°48' E 023°41'612.9
2017-Apr-21 03:30N 37°42' E 023°44'611.9
2017-Apr-21 03:00N 37°37' E 023°44'612.6
2017-Apr-21 02:30N 37°31' E 023°41'712.3
2017-Apr-21 01:58N 37°24' E 023°38'1012.5
2017-Apr-21 01:09N 37°15' E 023°34'212.7
2017-Apr-21 00:59N 37°13' E 023°33'612.8
2017-Apr-21 00:30N 37°07' E 023°30'1012.8
2017-Apr-20 23:46N 36°58' E 023°25'413.2
2017-Apr-20 23:28N 36°55' E 023°23'  
2017-Apr-18 18:39N 37°01' E 023°27'213.0
2017-Apr-18 18:30N 37°03' E 023°28'713.1
2017-Apr-18 18:00N 37°09' E 023°31'1313.0
2017-Apr-18 16:59N 37°22' E 023°36'613.0
2017-Apr-18 16:30N 37°28' E 023°38'713.1
2017-Apr-18 16:01N 37°34' E 023°40'712.8
2017-Apr-18 15:30N 37°40' E 023°41'612.9
2017-Apr-18 15:00N 37°46' E 023°38'612.5
2017-Apr-18 14:31N 37°52' E 023°37'5 4.7
2017-Apr-18 13:30N 37°57' E 023°38'0 0.0
2017-Apr-18 13:00N 37°57' E 023°38'0 0.0
2017-Apr-18 12:30N 37°57' E 023°38'0 0.0
2017-Apr-18 12:00N 37°57' E 023°38'0 0.0
2017-Apr-18 11:30N 37°57' E 023°38'0 0.0
2017-Apr-18 11:00N 37°57' E 023°38'0 0.0
2017-Apr-18 10:30N 37°57' E 023°38'0 0.0
2017-Apr-18 10:00N 37°57' E 023°38'0 0.0
2017-Apr-18 09:30N 37°57' E 023°38'0 0.0
2017-Apr-18 09:00N 37°57' E 023°38'0 0.0
2017-Apr-18 08:30N 37°57' E 023°38'0 0.0
2017-Apr-18 08:00N 37°57' E 023°38'0 0.0
2017-Apr-18 07:30N 37°57' E 023°38'0 0.0
2017-Apr-18 07:00N 37°57' E 023°38'0 0.0
2017-Apr-18 06:31N 37°57' E 023°38'0 0.0
2017-Apr-18 06:00N 37°57' E 023°38'0 0.0
2017-Apr-18 05:30N 37°57' E 023°38'0 0.5
2017-Apr-18 05:00N 37°57' E 023°38'2 3.1
2017-Apr-18 04:30N 37°56' E 023°36'3 6.3
2017-Apr-18 04:00N 37°53' E 023°38'612.5
2017-Apr-18 03:30N 37°47' E 023°41'612.6
2017-Apr-18 03:00N 37°42' E 023°45'612.3
2017-Apr-18 02:30N 37°36' E 023°44'612.9
2017-Apr-18 02:00N 37°29' E 023°41'1612.8
2017-Apr-18 00:47N 37°15' E 023°34'312.7
2017-Apr-18 00:30N 37°12' E 023°32'612.6
2017-Apr-18 00:00N 37°06' E 023°29'912.8
2017-Apr-17 23:18N 36°58' E 023°25'513.2
2017-Apr-17 22:56N 36°53' E 023°23'  
Track history (hours):
 
Tides and Currents Weather Stations Pressure Air Temp Water Temp Dewpoint Dewpoint Depression Visibility Wind Speed Wind Dir Waves Ship Positions

Vitsentzos Kornaros

Last reported at 2017-Apr-23 22:43 UTC. Time now 2017-Apr-23 23:39 UTC.
Position N 36°48' E 023°22'.

Length 128 m; draft 4.5 m.

Type: Passenger vessel. MMSI: 239311000.

Date/timePositionNaut miles runAvg speedWind from/ knotsBaromVisibWave heightAir tempDewpointWater temp
2017-Apr-23 22:43N 36°48' E 023°22'8 0.2
2017-Apr-21 19:04N 36°56' E 023°23'613.1
2017-Apr-21 18:38N 37°01' E 023°27'213.1
2017-Apr-21 18:30N 37°03' E 023°28'813.3
2017-Apr-21 17:52N 37°10' E 023°32'1613.4
2017-Apr-21 16:39N 37°26' E 023°38'213.6
2017-Apr-21 16:30N 37°28' E 023°38'713.5
2017-Apr-21 16:00N 37°34' E 023°41'612.9
2017-Apr-21 15:30N 37°41' E 023°41'612.9
2017-Apr-21 15:00N 37°47' E 023°38'612.5
2017-Apr-21 14:31N 37°53' E 023°37'4 4.2
2017-Apr-21 13:30N 37°57' E 023°38'0 0.0
2017-Apr-21 13:00N 37°57' E 023°38'0 0.0
2017-Apr-21 12:30N 37°57' E 023°38'0 0.0
2017-Apr-21 12:00N 37°57' E 023°38'0 0.0
2017-Apr-21 11:30N 37°57' E 023°38'0 0.0
2017-Apr-21 11:00N 37°57' E 023°38'0 0.0
2017-Apr-21 10:31N 37°57' E 023°38'0 0.0
2017-Apr-21 10:00N 37°57' E 023°38'0 0.0
2017-Apr-21 09:30N 37°57' E 023°38'0 0.0
2017-Apr-21 09:00N 37°57' E 023°38'0 0.0
2017-Apr-21 08:30N 37°57' E 023°38'0 0.0
2017-Apr-21 08:00N 37°57' E 023°38'0 0.0
2017-Apr-21 07:30N 37°57' E 023°38'0 0.0
2017-Apr-21 07:00N 37°57' E 023°38'0 0.0
2017-Apr-21 06:30N 37°57' E 023°38'0 0.0
2017-Apr-21 06:00N 37°57' E 023°38'0 0.0
2017-Apr-21 05:30N 37°57' E 023°38'0 0.0
2017-Apr-21 05:00N 37°57' E 023°38'3 5.6
2017-Apr-21 04:30N 37°54' E 023°38'612.8
2017-Apr-21 04:00N 37°48' E 023°41'612.9
2017-Apr-21 03:30N 37°42' E 023°44'611.9
2017-Apr-21 03:00N 37°37' E 023°44'612.6
2017-Apr-21 02:30N 37°31' E 023°41'712.3
2017-Apr-21 01:58N 37°24' E 023°38'1012.5
2017-Apr-21 01:09N 37°15' E 023°34'212.7
2017-Apr-21 00:59N 37°13' E 023°33'612.8
2017-Apr-21 00:30N 37°07' E 023°30'1012.8
2017-Apr-20 23:46N 36°58' E 023°25'413.2
2017-Apr-20 23:28N 36°55' E 023°23'  
2017-Apr-18 18:39N 37°01' E 023°27'213.0
2017-Apr-18 18:30N 37°03' E 023°28'713.1
2017-Apr-18 18:00N 37°09' E 023°31'1313.0
2017-Apr-18 16:59N 37°22' E 023°36'613.0
2017-Apr-18 16:30N 37°28' E 023°38'713.1
2017-Apr-18 16:01N 37°34' E 023°40'712.8
2017-Apr-18 15:30N 37°40' E 023°41'612.9
2017-Apr-18 15:00N 37°46' E 023°38'612.5
2017-Apr-18 14:31N 37°52' E 023°37'5 4.7
2017-Apr-18 13:30N 37°57' E 023°38'0 0.0
2017-Apr-18 13:00N 37°57' E 023°38'0 0.0
2017-Apr-18 12:30N 37°57' E 023°38'0 0.0
2017-Apr-18 12:00N 37°57' E 023°38'0 0.0
2017-Apr-18 11:30N 37°57' E 023°38'0 0.0
2017-Apr-18 11:00N 37°57' E 023°38'0 0.0
2017-Apr-18 10:30N 37°57' E 023°38'0 0.0
2017-Apr-18 10:00N 37°57' E 023°38'0 0.0
2017-Apr-18 09:30N 37°57' E 023°38'0 0.0
2017-Apr-18 09:00N 37°57' E 023°38'0 0.0
2017-Apr-18 08:30N 37°57' E 023°38'0 0.0
2017-Apr-18 08:00N 37°57' E 023°38'0 0.0
2017-Apr-18 07:30N 37°57' E 023°38'0 0.0
2017-Apr-18 07:00N 37°57' E 023°38'0 0.0
2017-Apr-18 06:31N 37°57' E 023°38'0 0.0
2017-Apr-18 06:00N 37°57' E 023°38'0 0.0
2017-Apr-18 05:30N 37°57' E 023°38'0 0.5
2017-Apr-18 05:00N 37°57' E 023°38'2 3.1
2017-Apr-18 04:30N 37°56' E 023°36'3 6.3
2017-Apr-18 04:00N 37°53' E 023°38'612.5
2017-Apr-18 03:30N 37°47' E 023°41'612.6
2017-Apr-18 03:00N 37°42' E 023°45'612.3
2017-Apr-18 02:30N 37°36' E 023°44'612.9
2017-Apr-18 02:00N 37°29' E 023°41'1612.8
2017-Apr-18 00:47N 37°15' E 023°34'312.7
2017-Apr-18 00:30N 37°12' E 023°32'612.6
2017-Apr-18 00:00N 37°06' E 023°29'912.8
2017-Apr-17 23:18N 36°58' E 023°25'513.2
2017-Apr-17 22:56N 36°53' E 023°23'  

Dump ship's entire track history